Observation data for Reese Center on 11/07/2019      Previous  Date       Current Mesonet Observations  Soil Data  Daily Summary Page  Observations in Plain Language
KREE 070600Z 34005KT 13/13 A3018 RMK A01 T01310126  RH  099%=      5-min Rain = 0
KREE 070605Z 34006KT 13/13 A3018 RMK A01 T01320127  RH  099%=      5-min Rain = 0
KREE 070610Z 34005KT 13/13 A3018 RMK A01 T01330128  RH  099%=      5-min Rain = 0
KREE 070615Z 36005KT 13/13 A3017 RMK A01 T01330128  RH  099%=      5-min Rain = 0
KREE 070620Z 01004KT 13/13 A3016 RMK A01 T01330129  RH  099%=      5-min Rain = 0
KREE 070625Z 00004KT 13/13 A3016 RMK A01 T01330129  RH  099%=      5-min Rain = 0
KREE 070630Z 01003KT 13/13 A3016 RMK A01 T01330129  RH  099%=      5-min Rain = 0
KREE 070635Z 35002KT 13/13 A3016 RMK A01 T01330129  RH  099%=      5-min Rain = 0
KREE 070640Z 33001KT 13/13 A3016 RMK A01 T01330129  RH  099%=      5-min Rain = 0
KREE 070645Z 32000KT 13/13 A3016 RMK A01 T01330129  RH  099%=      5-min Rain = 0
KREE 070650Z 19001KT 13/13 A3016 RMK A01 T01330129  RH  099%=      5-min Rain = 0
KREE 070655Z 18003KT 13/13 A3016 RMK A01 T01330129  RH  099%=      5-min Rain = 0
KREE 070700Z 18001KT 13/13 A3016 RMK A01 T01330129  RH  099%=      5-min Rain = 0
KREE 070705Z 16002KT 13/13 A3016 RMK A01 T01330129  RH  099%=      5-min Rain = 0
KREE 070710Z 14003KT 13/13 A3015 RMK A01 T01330129  RH  099%=      5-min Rain = 0
KREE 070715Z 13004KT 13/13 A3015 RMK A01 T01330129  RH  099%=      5-min Rain = 0
KREE 070720Z 14002KT 13/13 A3015 RMK A01 T01330129  RH  099%=      5-min Rain = 0
KREE 070725Z 28001KT 13/13 A3017 RMK A01 T01330129  RH  099%=      5-min Rain = 0
KREE 070730Z 30003KT 13/13 A3018 RMK A01 T01330129  RH  099%=      5-min Rain = 0
KREE 070735Z 29004KT 13/13 A3019 RMK A01 T01330129  RH  099%=      5-min Rain = 0
KREE 070740Z 29005KT 13/13 A3019 RMK A01 T01330129  RH  099%=      5-min Rain = 0
KREE 070745Z 30004KT 13/13 A3019 RMK A01 T01340129  RH  099%=      5-min Rain = 0
KREE 070750Z 01014G22KT 12/12 A302 RMK A01 T01210116  RH  099%=      5-min Rain = 0
KREE 070755Z 01018G28KT 08/08 A302 RMK A01 T00820075  RH  097%=      5-min Rain = 0.01
KREE 070800Z 01019G24KT 07/07 A3022 RMK A01 T00710065  RH  097%=      5-min Rain = 0.01
KREE 070805Z 36022G28KT 07/06 A3023 RMK A01 T00650059  RH  098%=      5-min Rain = 0
KREE 070810Z 00024G30KT 06/05 A3024 RMK A01 T00570051  RH  097%=      5-min Rain = 0.01
KREE 070815Z 00025G31KT 05/04 A3024 RMK A01 T00500043  RH  097%=      5-min Rain = 0
KREE 070820Z 00023G30KT 05/04 A3025 RMK A01 T00480041  RH  096%=      5-min Rain = 0
KREE 070825Z 36021G28KT 05/04 A3026 RMK A01 T00470038  RH  096%=      5-min Rain = 0
KREE 070830Z 36024G30KT 04/03 A3026 RMK A01 T00400031  RH  095%=      5-min Rain = 0
KREE 070835Z 36021G29KT 04/03 A3026 RMK A01 T00370027  RH  094%=      5-min Rain = 0
KREE 070840Z 01023G29KT 04/03 A3026 RMK A01 T00350026  RH  095%=      5-min Rain = 0
KREE 070845Z 01024G31KT 03/02 A3026 RMK A01 T00320022  RH  094%=      5-min Rain = 0
KREE 070850Z 01020G27KT 03/02 A3027 RMK A01 T00310022  RH  095%=      5-min Rain = 0
KREE 070855Z 01023G28KT 03/02 A3027 RMK A01 T00280019  RH  095%=      5-min Rain = 0
KREE 070900Z 01023G30KT 03/02 A3027 RMK A01 T00270019  RH  096%=      5-min Rain = 0
KREE 070905Z 01022G27KT 02/02 A3027 RMK A01 T00240017  RH  096%=      5-min Rain = 0.01
KREE 070910Z 01024G31KT 02/02 A3026 RMK A01 T00230016  RH  096%=      5-min Rain = 0.01
KREE 070915Z 01023G29KT 02/02 A3026 RMK A01 T00210015  RH  097%=      5-min Rain = 0
KREE 070920Z 01020G26KT 02/01 A3026 RMK A01 T00210014  RH  097%=      5-min Rain = 0
KREE 070925Z 01022G27KT 02/01 A3026 RMK A01 T00190013  RH  097%=      5-min Rain = 0
KREE 070930Z 00023G29KT 02/01 A3026 RMK A01 T00180013  RH  097%=      5-min Rain = 0
KREE 070935Z 01024G31KT 02/01 A3027 RMK A01 T00180012  RH  097%=      5-min Rain = 0
KREE 070940Z 01023G30KT 02/01 A3026 RMK A01 T00160011  RH  097%=      5-min Rain = 0
KREE 070945Z 01022G33KT 02/01 A3027 RMK A01 T00170011  RH  097%=      5-min Rain = 0
KREE 070950Z 01024G31KT 02/01 A3026 RMK A01 T00150009  RH  097%=      5-min Rain = 0
KREE 070955Z 01022G28KT 02/01 A3025 RMK A01 T00150010  RH  097%=      5-min Rain = 0
KREE 071000Z 01024G30KT 01/01 A3025 RMK A01 T00140008  RH  097%=      5-min Rain = 0
KREE 071005Z 02023G31KT 01/01 A3025 RMK A01 T00130007  RH  097%=      5-min Rain = 0
KREE 071010Z 01023G30KT 01/01 A3026 RMK A01 T00130007  RH  097%=      5-min Rain = 0
KREE 071015Z 01024G31KT 01/01 A3026 RMK A01 T00120005  RH  096%=      5-min Rain = 0
KREE 071020Z 01023G30KT 01/00 A3026 RMK A01 T00120004  RH  095%=      5-min Rain = 0
KREE 071025Z 01022G29KT 01/00 A3025 RMK A01 T00120004  RH  095%=      5-min Rain = 0
KREE 071030Z 01024G30KT 01/00 A3025 RMK A01 T00120003  RH  095%=      5-min Rain = 0
KREE 071035Z 01022KT 01/00 A3025 RMK A01 T00120003  RH  095%=      5-min Rain = 0
KREE 071040Z 01025G30KT 01/00 A3025 RMK A01 T00110003  RH  096%=      5-min Rain = 0
KREE 071045Z 01022G28KT 01/00 A3026 RMK A01 T00100002  RH  096%=      5-min Rain = 0
KREE 071050Z 01023G29KT 01/00 A3027 RMK A01 T00080001  RH  096%=      5-min Rain = 0
KREE 071055Z 01021G29KT 01/00 A3028 RMK A01 T00080001  RH  096%=      5-min Rain = 0
KREE 071100Z 01020G26KT 01/00 A3029 RMK A01 T00080001  RH  096%=      5-min Rain = 0
KREE 071105Z 01019G25KT 01/00 A303 RMK A01 T00080001  RH  096%=      5-min Rain = 0
KREE 071110Z 01022G30KT 01/00 A303 RMK A01 T00080000  RH  096%=      5-min Rain = 0
KREE 071115Z 02021G27KT 01/00 A3031 RMK A01 T000800-0  RH  096%=      5-min Rain = 0
KREE 071120Z 01019G26KT 01/00 A303 RMK A01 T00080000  RH  096%=      5-min Rain = 0
KREE 071125Z 01024KT 01/M00 A3031 RMK A01 T00071001  RH  096%=      5-min Rain = 0
KREE 071130Z 01021G27KT 01/M00 A3031 RMK A01 T00071001  RH  095%=      5-min Rain = 0
KREE 071135Z 01022G28KT 01/M00 A3032 RMK A01 T00061002  RH  095%=      5-min Rain = 0
KREE 071140Z 01021G29KT 01/M00 A3032 RMK A01 T00051003  RH  095%=      5-min Rain = 0
KREE 071145Z 01023G30KT 00/M01 A3033 RMK A01 T00031005  RH  095%=      5-min Rain = 0
KREE 071150Z 01024G29KT 00/M01 A3033 RMK A01 T00031006  RH  095%=      5-min Rain = 0
KREE 071155Z 01019G26KT 00/M01 A3033 RMK A01 T00031005  RH  095%=      5-min Rain = 0
KREE 071200Z 01019G26KT 00/M01 A3033 RMK A01 T00031005  RH  096%=      5-min Rain = 0
KREE 071205Z 01020G26KT 00/M01 A3034 RMK A01 T00031005  RH  096%=      5-min Rain = 0
KREE 071210Z 01021G28KT 00/M01 A3033 RMK A01 T00031005  RH  096%=      5-min Rain = 0.01
KREE 071215Z 02017G24KT 00/M00 A3034 RMK A01 T00031004  RH  096%=      5-min Rain = 0
KREE 071220Z 02021G27KT 00/M01 A3033 RMK A01 T00011005  RH  096%=      5-min Rain = 0
KREE 071225Z 01022G28KT M00/M01 A3034 RMK A01 T10011008  RH  096%=      5-min Rain = 0
KREE 071230Z 01019G25KT M00/M01 A3034 RMK A01 T10011007  RH  096%=      5-min Rain = 0
KREE 071235Z 01022G27KT M00/M01 A3034 RMK A01 T10011008  RH  096%=      5-min Rain = 0
KREE 071240Z 01019G27KT M00/M01 A3035 RMK A01 T10011008  RH  097%=      5-min Rain = 0.01
KREE 071245Z 02017G24KT M00/M01 A3035 RMK A01 T10011007  RH  097%=      5-min Rain = 0
KREE 071250Z 02019G24KT 00/01 A3035 RMK A01 T00-000-7  RH  097%=      5-min Rain = 0
KREE 071255Z 01020G26KT M00/M01 A3035 RMK A01 T10011007  RH  097%=      5-min Rain = 0
KREE 071300Z 02018G23KT 00/01 A3036 RMK A01 T00-000-6  RH  097%=      5-min Rain = 0
KREE 071305Z 01019G25KT M00/M01 A3036 RMK A01 T10011007  RH  097%=      5-min Rain = 0
KREE 071310Z 02019G25KT M00/M01 A3036 RMK A01 T10021008  RH  097%=      5-min Rain = 0
KREE 071315Z 02017KT M00/M01 A3037 RMK A01 T10011008  RH  097%=      5-min Rain = 0
KREE 071320Z 01015KT M00/M01 A3038 RMK A01 T10011007  RH  097%=      5-min Rain = 0
KREE 071325Z 01020G26KT M00/M01 A3039 RMK A01 T10021008  RH  097%=      5-min Rain = 0
KREE 071330Z 01020KT M00/M01 A3039 RMK A01 T10021008  RH  097%=      5-min Rain = 0
KREE 071335Z 01017G23KT M00/M01 A3039 RMK A01 T10021009  RH  096%=      5-min Rain = 0
KREE 071340Z 01016G24KT M00/M01 A3039 RMK A01 T10011008  RH  097%=      5-min Rain = 0
KREE 071345Z 01021G27KT M00/M01 A3039 RMK A01 T10031009  RH  096%=      5-min Rain = 0
KREE 071350Z 01021KT M00/M01 A3038 RMK A01 T10041011  RH  096%=      5-min Rain = 0
KREE 071355Z 01022KT M00/M01 A3038 RMK A01 T10041011  RH  096%=      5-min Rain = 0.01
KREE 071400Z 02019G26KT M00/M01 A3038 RMK A01 T10041010  RH  097%=      5-min Rain = 0
KREE 071405Z 01019KT M00/M01 A3039 RMK A01 T10041010  RH  097%=      5-min Rain = 0
KREE 071410Z 02020KT M00/M01 A3039 RMK A01 T10041010  RH  097%=      5-min Rain = 0.01
KREE 071415Z 02017G24KT M00/M01 A3039 RMK A01 T10031009  RH  097%=      5-min Rain = 0
KREE 071420Z 02017G22KT M00/M01 A304 RMK A01 T10031009  RH  097%=      5-min Rain = 0
KREE 071425Z 01017G24KT M00/M01 A3041 RMK A01 T10031009  RH  097%=      5-min Rain = 0
KREE 071430Z 01019KT M00/M01 A3041 RMK A01 T10031010  RH  096%=      5-min Rain = 0
KREE 071435Z 01016G21KT M00/M01 A3043 RMK A01 T10041011  RH  096%=      5-min Rain = 0
KREE 071440Z 02016G21KT M00/M01 A3044 RMK A01 T10041011  RH  096%=      5-min Rain = 0
KREE 071445Z 02017G23KT M00/M01 A3043 RMK A01 T10031011  RH  096%=      5-min Rain = 0
KREE 071450Z 02017G22KT M00/M01 A3043 RMK A01 T10031011  RH  096%=      5-min Rain = 0
KREE 071455Z 02016KT M00/M01 A3043 RMK A01 T10031010  RH  096%=      5-min Rain = 0
KREE 071500Z 02016G22KT M00/M01 A3044 RMK A01 T10031010  RH  096%=      5-min Rain = 0.01
KREE 071505Z 02013G18KT M00/M01 A3044 RMK A01 T10031010  RH  096%=      5-min Rain = 0
KREE 071510Z 03014KT M00/M01 A3043 RMK A01 T10031010  RH  096%=      5-min Rain = 0
KREE 071515Z 03014G20KT M00/M01 A3043 RMK A01 T10031010  RH  096%=      5-min Rain = 0
KREE 071520Z 03014KT M00/M01 A3043 RMK A01 T10031010  RH  096%=      5-min Rain = 0
KREE 071525Z 03015KT M00/M01 A3043 RMK A01 T10031010  RH  096%=      5-min Rain = 0
KREE 071530Z 02014KT M00/M01 A3044 RMK A01 T10021009  RH  096%=      5-min Rain = 0
KREE 071535Z 02014KT M00/M01 A3044 RMK A01 T10021009  RH  096%=      5-min Rain = 0
KREE 071540Z 02015G20KT M00/M01 A3044 RMK A01 T10021009  RH  096%=      5-min Rain = 0
KREE 071545Z 02016G21KT M00/M01 A3044 RMK A01 T10021009  RH  096%=      5-min Rain = 0
KREE 071550Z 02014KT M00/M01 A3044 RMK A01 T10021009  RH  096%=      5-min Rain = 0
KREE 071555Z 02016KT M00/M01 A3044 RMK A01 T10021009  RH  096%=      5-min Rain = 0
KREE 071600Z 02015KT M00/M01 A3044 RMK A01 T10011008  RH  096%=      5-min Rain = 0
KREE 071605Z 02014KT M00/M01 A3045 RMK A01 T10011008  RH  096%=      5-min Rain = 0
KREE 071610Z 01013KT M00/M01 A3045 RMK A01 T10011008  RH  096%=      5-min Rain = 0
KREE 071615Z 01014G19KT M00/M01 A3045 RMK A01 T10021009  RH  096%=      5-min Rain = 0.01
KREE 071620Z 01015KT M00/M01 A3046 RMK A01 T10021009  RH  096%=      5-min Rain = 0
KREE 071625Z 01012KT M00/M01 A3045 RMK A01 T10021009  RH  096%=      5-min Rain = 0
KREE 071630Z 02013KT M00/M01 A3045 RMK A01 T10021009  RH  096%=      5-min Rain = 0
KREE 071635Z 02014KT M00/M01 A3045 RMK A01 T10021008  RH  096%=      5-min Rain = 0
KREE 071640Z 03015KT M00/M01 A3044 RMK A01 T10021009  RH  096%=      5-min Rain = 0
KREE 071645Z 03015KT M00/M01 A3044 RMK A01 T10021009  RH  096%=      5-min Rain = 0
KREE 071650Z 02014G19KT M00/M01 A3045 RMK A01 T10011008  RH  096%=      5-min Rain = 0.01
KREE 071655Z 02014KT M00/M01 A3045 RMK A01 T10011008  RH  096%=      5-min Rain = 0
KREE 071700Z 03015KT M00/M01 A3044 RMK A01 T10011008  RH  096%=      5-min Rain = 0
KREE 071705Z 02014KT 00/01 A3045 RMK A01 T00-000-7  RH  096%=      5-min Rain = 0
KREE 071710Z 02013G18KT 00/01 A3045 RMK A01 T000000-7  RH  096%=      5-min Rain = 0
KREE 071715Z 02014G19KT 00/01 A3044 RMK A01 T000000-7  RH  096%=      5-min Rain = 0
KREE 071720Z 02015KT 00/01 A3044 RMK A01 T00-000-7  RH  096%=      5-min Rain = 0
KREE 071725Z 03014G19KT 00/01 A3044 RMK A01 T000000-6  RH  097%=      5-min Rain = 0
KREE 071730Z 03014G20KT 00/M01 A3044 RMK A01 T00011005  RH  097%=      5-min Rain = 0
KREE 071735Z 03013G20KT 00/M01 A3044 RMK A01 T00011005  RH  097%=      5-min Rain = 0
KREE 071740Z 02011KT 00/M00 A3044 RMK A01 T00021004  RH  097%=      5-min Rain = 0
KREE 071745Z 02012KT 00/M00 A3045 RMK A01 T00011004  RH  097%=      5-min Rain = 0
KREE 071750Z 02012KT 00/01 A3045 RMK A01 T000000-5  RH  097%=      5-min Rain = 0
KREE 071755Z 02011KT 00/M00 A3045 RMK A01 T00011004  RH  097%=      5-min Rain = 0
KREE 071800Z 02013KT 00/M00 A3045 RMK A01 T00011004  RH  097%=      5-min Rain = 0
KREE 071805Z 02012KT 00/M00 A3045 RMK A01 T00011004  RH  097%=      5-min Rain = 0
KREE 071810Z 02012KT 00/M00 A3045 RMK A01 T00011004  RH  097%=      5-min Rain = 0
KREE 071815Z 03012KT 00/M00 A3045 RMK A01 T00021004  RH  097%=      5-min Rain = 0
KREE 071820Z 01013KT 00/01 A3045 RMK A01 T00-000-6  RH  097%=      5-min Rain = 0
KREE 071825Z 01013KT 00/01 A3044 RMK A01 T00-000-6  RH  097%=      5-min Rain = 0
KREE 071830Z 01012KT 00/01 A3044 RMK A01 T000000-5  RH  097%=      5-min Rain = 0
KREE 071835Z 01013KT 00/01 A3044 RMK A01 T00-000-5  RH  097%=      5-min Rain = 0
KREE 071840Z 01012KT 00/01 A3045 RMK A01 T000000-5  RH  097%=      5-min Rain = 0
KREE 071845Z 01012KT 00/01 A3045 RMK A01 T000000-5  RH  097%=      5-min Rain = 0
KREE 071850Z 01011KT 00/01 A3046 RMK A01 T000000-5  RH  097%=      5-min Rain = 0
KREE 071855Z 01010KT 00/M00 A3046 RMK A01 T00011004  RH  097%=      5-min Rain = 0
KREE 071900Z 00012KT 00/01 A3045 RMK A01 T00-000-6  RH  097%=      5-min Rain = 0
KREE 071905Z 01012KT 00/01 A3044 RMK A01 T00-000-6  RH  097%=      5-min Rain = 0
KREE 071910Z 01012KT M00/M01 A3044 RMK A01 T10011007  RH  097%=      5-min Rain = 0
KREE 071915Z 01013KT M00/M01 A3043 RMK A01 T10011007  RH  097%=      5-min Rain = 0
KREE 071920Z 01013KT M00/M01 A3043 RMK A01 T10011006  RH  097%=      5-min Rain = 0
KREE 071925Z 01013KT M00/M01 A3043 RMK A01 T10011007  RH  097%=      5-min Rain = 0
KREE 071930Z 01013G18KT M00/M01 A3043 RMK A01 T10011007  RH  097%=      5-min Rain = 0
KREE 071935Z 02013KT 00/01 A3042 RMK A01 T000000-6  RH  097%=      5-min Rain = 0
KREE 071940Z 02013KT 00/01 A3041 RMK A01 T00-000-7  RH  097%=      5-min Rain = 0
KREE 071945Z 01014KT 00/01 A3041 RMK A01 T00-000-7  RH  097%=      5-min Rain = 0
KREE 071950Z 01015KT M00/M01 A3041 RMK A01 T10011008  RH  096%=      5-min Rain = 0
KREE 071955Z 01013KT M00/M01 A3041 RMK A01 T10011007  RH  097%=      5-min Rain = 0
KREE 072000Z 02013KT M00/M01 A3041 RMK A01 T10011007  RH  097%=      5-min Rain = 0
KREE 072005Z 02014KT M00/M01 A3041 RMK A01 T10011007  RH  097%=      5-min Rain = 0
KREE 072010Z 01014G19KT M00/M01 A3041 RMK A01 T10011008  RH  097%=      5-min Rain = 0
KREE 072015Z 01014KT M00/M01 A3041 RMK A01 T10021008  RH  097%=      5-min Rain = 0
KREE 072020Z 01014KT M00/M01 A3041 RMK A01 T10021008  RH  097%=      5-min Rain = 0
KREE 072025Z 01014KT M00/M01 A3041 RMK A01 T10011007  RH  097%=      5-min Rain = 0
KREE 072030Z 01013KT M00/M01 A3041 RMK A01 T10011007  RH  097%=      5-min Rain = 0
KREE 072035Z 02011KT M00/M01 A3042 RMK A01 T10011006  RH  097%=      5-min Rain = 0
KREE 072040Z 01013KT M00/M01 A3042 RMK A01 T10021008  RH  097%=      5-min Rain = 0
KREE 072045Z 00012KT M00/M01 A3042 RMK A01 T10021008  RH  097%=      5-min Rain = 0
KREE 072050Z 01013KT M00/M01 A3041 RMK A01 T10021007  RH  097%=      5-min Rain = 0
KREE 072055Z 01014KT M00/M01 A3041 RMK A01 T10021008  RH  097%=      5-min Rain = 0
KREE 072100Z 02012KT M00/M01 A3041 RMK A01 T10011006  RH  097%=      5-min Rain = 0
KREE 072105Z 01011G16KT 00/01 A3042 RMK A01 T000000-5  RH  097%=      5-min Rain = 0
KREE 072110Z 02012KT M00/M01 A3043 RMK A01 T10011006  RH  097%=      5-min Rain = 0
KREE 072115Z 01012KT M00/M01 A3043 RMK A01 T10011007  RH  097%=      5-min Rain = 0
KREE 072120Z 02012KT M00/M01 A3043 RMK A01 T10011007  RH  097%=      5-min Rain = 0
KREE 072125Z 02012KT 00/01 A3042 RMK A01 T00-000-6  RH  097%=      5-min Rain = 0
KREE 072130Z 01011KT 00/M00 A3042 RMK A01 T00011004  RH  097%=      5-min Rain = 0
KREE 072135Z 01011KT 00/01 A3042 RMK A01 T000000-6  RH  096%=      5-min Rain = 0
KREE 072140Z 01013KT M00/M01 A3042 RMK A01 T10011007  RH  096%=      5-min Rain = 0
KREE 072145Z 01012KT 00/01 A3042 RMK A01 T00-000-7  RH  097%=      5-min Rain = 0
KREE 072150Z 01012KT 00/01 A3042 RMK A01 T000000-7  RH  096%=      5-min Rain = 0
KREE 072155Z 01013KT 00/01 A3043 RMK A01 T000000-7  RH  096%=      5-min Rain = 0
KREE 072200Z 01012KT 00/01 A3043 RMK A01 T00-000-7  RH  096%=      5-min Rain = 0
KREE 072205Z 01011KT M00/M01 A3043 RMK A01 T10011008  RH  096%=      5-min Rain = 0
KREE 072210Z 01012KT 00/01 A3042 RMK A01 T00-000-8  RH  096%=      5-min Rain = 0
KREE 072215Z 01012KT M00/M01 A3042 RMK A01 T10011008  RH  096%=      5-min Rain = 0
KREE 072220Z 01011G16KT 00/01 A3042 RMK A01 T00-000-8  RH  096%=      5-min Rain = 0
KREE 072225Z 01013KT M00/M01 A3042 RMK A01 T10011009  RH  095%=      5-min Rain = 0
KREE 072230Z 02011KT 00/01 A3042 RMK A01 T000000-8  RH  095%=      5-min Rain = 0
KREE 072235Z 01011KT 00/M01 A3042 RMK A01 T00011007  RH  095%=      5-min Rain = 0
KREE 072240Z 00009KT 00/01 A3042 RMK A01 T000000-8  RH  095%=      5-min Rain = 0
KREE 072245Z 01009KT 00/01 A3043 RMK A01 T000000-7  RH  096%=      5-min Rain = 0
KREE 072250Z 01010KT 00/01 A3043 RMK A01 T00-000-8  RH  096%=      5-min Rain = 0
KREE 072255Z 01010KT 00/01 A3042 RMK A01 T000000-6  RH  097%=      5-min Rain = 0
KREE 072300Z 01009KT 00/01 A3042 RMK A01 T000000-5  RH  097%=      5-min Rain = 0
KREE 072305Z 01010KT 00/01 A3043 RMK A01 T000000-5  RH  097%=      5-min Rain = 0
KREE 072310Z 00011KT M00/M01 A3043 RMK A01 T10011006  RH  097%=      5-min Rain = 0
KREE 072315Z 36010KT M00/M01 A3043 RMK A01 T10011006  RH  098%=      5-min Rain = 0
KREE 072320Z 00012KT M00/M01 A3043 RMK A01 T10011006  RH  098%=      5-min Rain = 0
KREE 072325Z 01011KT M00/M01 A3043 RMK A01 T10021006  RH  098%=      5-min Rain = 0
KREE 072330Z 00009KT 00/01 A3044 RMK A01 T00-000-5  RH  098%=      5-min Rain = 0
KREE 072335Z 00009KT M00/M01 A3044 RMK A01 T10011005  RH  098%=      5-min Rain = 0
KREE 072340Z 01009KT M00/M01 A3044 RMK A01 T10011005  RH  098%=      5-min Rain = 0
KREE 072345Z 02009KT 00/01 A3044 RMK A01 T00-000-5  RH  098%=      5-min Rain = 0
KREE 072350Z 01008KT 00/00 A3044 RMK A01 T000000-4  RH  098%=      5-min Rain = 0
KREE 072355Z 00008KT 00/00 A3044 RMK A01 T000000-4  RH  098%=      5-min Rain = 0
KREE 080000Z 35008KT 00/M00 A3044 RMK A01 T00011004  RH  098%=      5-min Rain = 0
KREE 080005Z 36010KT 00/00 A3044 RMK A01 T000000-4  RH  098%=      5-min Rain = 0
KREE 080010Z 01009KT 00/M00 A3044 RMK A01 T00011003  RH  098%=      5-min Rain = 0
KREE 080015Z 01008KT 00/M00 A3044 RMK A01 T00011003  RH  098%=      5-min Rain = 0
KREE 080020Z 01008KT 00/M00 A3044 RMK A01 T00011003  RH  098%=      5-min Rain = 0
KREE 080025Z 00008KT 00/M00 A3044 RMK A01 T00011003  RH  098%=      5-min Rain = 0
KREE 080030Z 01009KT 00/M00 A3044 RMK A01 T00011003  RH  098%=      5-min Rain = 0
KREE 080035Z 02009KT 00/M00 A3044 RMK A01 T00011003  RH  099%=      5-min Rain = 0
KREE 080040Z 02009KT 00/M00 A3044 RMK A01 T00011002  RH  099%=      5-min Rain = 0
KREE 080045Z 02009KT 00/M00 A3043 RMK A01 T00011002  RH  099%=      5-min Rain = 0
KREE 080050Z 02008KT 00/M00 A3043 RMK A01 T00011002  RH  099%=      5-min Rain = 0
KREE 080055Z 02009KT 00/M00 A3043 RMK A01 T00011002  RH  099%=      5-min Rain = 0
KREE 080100Z 02008KT 00/M00 A3044 RMK A01 T00011002  RH  099%=      5-min Rain = 0
KREE 080105Z 02006KT 00/M00 A3044 RMK A01 T00021001  RH  099%=      5-min Rain = 0
KREE 080110Z 02008KT 00/M00 A3044 RMK A01 T00021001  RH  099%=      5-min Rain = 0
KREE 080115Z 03007KT 00/M00 A3044 RMK A01 T00021002  RH  099%=      5-min Rain = 0
KREE 080120Z 02007KT 00/M00 A3044 RMK A01 T00021001  RH  099%=      5-min Rain = 0
KREE 080125Z 02008KT 00/M00 A3044 RMK A01 T00021001  RH  099%=      5-min Rain = 0
KREE 080130Z 02007KT 00/M00 A3044 RMK A01 T00021001  RH  099%=      5-min Rain = 0
KREE 080135Z 02007KT 00/M00 A3044 RMK A01 T00021001  RH  099%=      5-min Rain = 0
KREE 080140Z 02007KT 00/M00 A3044 RMK A01 T00031001  RH  099%=      5-min Rain = 0
KREE 080145Z 02007KT 00/00 A3044 RMK A01 T000300-0  RH  099%=      5-min Rain = 0
KREE 080150Z 03007KT 00/M00 A3045 RMK A01 T00031001  RH  099%=      5-min Rain = 0
KREE 080155Z 02006KT 00/00 A3045 RMK A01 T00030000  RH  099%=      5-min Rain = 0
KREE 080200Z 03006KT 00/00 A3044 RMK A01 T00030000  RH  099%=      5-min Rain = 0
KREE 080205Z 02006KT 00/00 A3044 RMK A01 T00040001  RH  099%=      5-min Rain = 0
KREE 080210Z 01007KT 00/00 A3044 RMK A01 T00040000  RH  099%=      5-min Rain = 0
KREE 080215Z 01007KT 00/00 A3044 RMK A01 T00030000  RH  099%=      5-min Rain = 0
KREE 080220Z 02007KT 00/00 A3045 RMK A01 T000300-0  RH  099%=      5-min Rain = 0
KREE 080225Z 02007KT 00/M00 A3045 RMK A01 T00031001  RH  099%=      5-min Rain = 0
KREE 080230Z 02008KT 00/00 A3045 RMK A01 T000300-0  RH  099%=      5-min Rain = 0
KREE 080235Z 03008KT 00/00 A3045 RMK A01 T000300-0  RH  099%=      5-min Rain = 0
KREE 080240Z 03007KT 00/00 A3045 RMK A01 T00030000  RH  099%=      5-min Rain = 0
KREE 080245Z 02006KT 00/00 A3045 RMK A01 T00040001  RH  099%=      5-min Rain = 0
KREE 080250Z 02007KT 00/00 A3045 RMK A01 T00040001  RH  099%=      5-min Rain = 0
KREE 080255Z 01008KT 00/00 A3045 RMK A01 T00030000  RH  099%=      5-min Rain = 0
KREE 080300Z 01007KT 00/00 A3045 RMK A01 T00030000  RH  099%=      5-min Rain = 0
KREE 080305Z 01006KT 00/00 A3046 RMK A01 T00030000  RH  099%=      5-min Rain = 0
KREE 080310Z 03007KT 00/00 A3046 RMK A01 T00030000  RH  099%=      5-min Rain = 0
KREE 080315Z 03005KT 00/00 A3046 RMK A01 T000300-0  RH  099%=      5-min Rain = 0
KREE 080320Z 02006KT 00/00 A3046 RMK A01 T00030001  RH  099%=      5-min Rain = 0
KREE 080325Z 02007KT 00/00 A3046 RMK A01 T000200-0  RH  099%=      5-min Rain = 0
KREE 080330Z 01006KT 00/00 A3046 RMK A01 T000300-0  RH  099%=      5-min Rain = 0
KREE 080335Z 02007KT 00/00 A3046 RMK A01 T000200-0  RH  099%=      5-min Rain = 0
KREE 080340Z 01006KT 00/00 A3046 RMK A01 T000200-0  RH  099%=      5-min Rain = 0
KREE 080345Z 01006KT 00/00 A3046 RMK A01 T000200-0  RH  099%=      5-min Rain = 0
KREE 080350Z 02006KT 00/M00 A3047 RMK A01 T00021001  RH  099%=      5-min Rain = 0
KREE 080355Z 02007KT 00/M00 A3047 RMK A01 T00021001  RH  099%=      5-min Rain = 0
KREE 080400Z 02006KT 00/00 A3046 RMK A01 T000300-0  RH  099%=      5-min Rain = 0
KREE 080405Z 02005KT 00/00 A3047 RMK A01 T00040000  RH  099%=      5-min Rain = 0
KREE 080410Z 02007KT 00/M00 A3047 RMK A01 T00031001  RH  099%=      5-min Rain = 0
KREE 080415Z 01006KT 00/00 A3047 RMK A01 T000400-0  RH  098%=      5-min Rain = 0
KREE 080420Z 02007KT 00/00 A3047 RMK A01 T00040000  RH  098%=      5-min Rain = 0
KREE 080425Z 01006KT 01/00 A3047 RMK A01 T00050000  RH  098%=      5-min Rain = 0
KREE 080430Z 01007KT 00/00 A3047 RMK A01 T000400-0  RH  098%=      5-min Rain = 0
KREE 080435Z 01006KT 00/M00 A3047 RMK A01 T00041001  RH  098%=      5-min Rain = 0
KREE 080440Z 01006KT 01/00 A3047 RMK A01 T000500-0  RH  097%=      5-min Rain = 0
KREE 080445Z 02008KT 00/M00 A3046 RMK A01 T00041002  RH  097%=      5-min Rain = 0
KREE 080450Z 02009KT 00/M00 A3046 RMK A01 T00031003  RH  097%=      5-min Rain = 0
KREE 080455Z 02008KT 00/M00 A3046 RMK A01 T00021004  RH  097%=      5-min Rain = 0
KREE 080500Z 02008KT 00/M00 A3046 RMK A01 T00021004  RH  097%=      5-min Rain = 0
KREE 080505Z 02008KT 00/M00 A3046 RMK A01 T00021004  RH  097%=      5-min Rain = 0
KREE 080510Z 02007KT 00/M00 A3046 RMK A01 T00021004  RH  097%=      5-min Rain = 0
KREE 080515Z 02006KT 00/M00 A3046 RMK A01 T00031003  RH  097%=      5-min Rain = 0
KREE 080520Z 01006KT 00/M00 A3046 RMK A01 T00031003  RH  097%=      5-min Rain = 0
KREE 080525Z 02007KT 00/M00 A3046 RMK A01 T00031003  RH  097%=      5-min Rain = 0
KREE 080530Z 02006KT 00/M00 A3046 RMK A01 T00031003  RH  097%=      5-min Rain = 0
KREE 080535Z 02006KT 00/M00 A3046 RMK A01 T00031004  RH  097%=      5-min Rain = 0
KREE 080540Z 02006KT 00/M00 A3045 RMK A01 T00031004  RH  096%=      5-min Rain = 0
KREE 080545Z 02006KT 00/M00 A3046 RMK A01 T00031003  RH  096%=      5-min Rain = 0
KREE 080550Z 02005KT 00/M00 A3045 RMK A01 T00041003  RH  096%=      5-min Rain = 0
KREE 080555Z 01005KT 00/M00 A3045 RMK A01 T00041002  RH  096%=      5-min Rain = 0

Page generated in 0.0101 seconds.